Gokbel — TCZY4 — position and weather

sailwx.info

Track history (hours):
 
Tides and Currents Weather Stations Pressure Air Temp Water Temp Dewpoint Dewpoint Depression Visibility Wind Speed Wind Dir Waves Ship Positions

Gokbel

Last reported at 2014-Sep-13 00:32 UTC. Time now 2014-Sep-17 07:35 UTC.
Position N 40°58' E 028°59'.

Length 87 m; draft 3.3 m.

MMSI: 271042598.

Date/timePositionNaut miles runAvg speedWind from/ knotsBaromVisibWave heightAir tempDewpointWater temp
2014-Sep-13 00:32N 40°58' E 028°59'4 3.6
2014-Sep-12 23:33N 40°58' E 028°54'0 0.0
2014-Sep-12 22:33N 40°58' E 028°54'0 0.0
2014-Sep-12 20:33N 40°58' E 028°54'0 0.0
2014-Sep-12 19:33N 40°58' E 028°54'0 0.0
2014-Sep-12 18:21N 40°58' E 028°54'0 0.0
2014-Sep-12 17:21N 40°58' E 028°54'0 0.0
2014-Sep-12 16:21N 40°58' E 028°54'0 0.0
2014-Sep-12 15:33N 40°58' E 028°54'0 0.0
2014-Sep-12 13:27N 40°58' E 028°54'0 0.0
2014-Sep-12 05:09N 40°58' E 028°54'0 0.0
2014-Sep-12 04:15N 40°58' E 028°54'0 0.0
2014-Sep-12 03:21N 40°58' E 028°54'0 0.0
2014-Sep-12 02:33N 40°58' E 028°54'0 0.0
2014-Sep-12 01:27N 40°58' E 028°54'0 0.0
2014-Sep-12 00:33N 40°58' E 028°54'3 3.2
2014-Sep-11 23:32N 40°55' E 028°57'10 9.1
2014-Sep-11 22:26N 40°50' E 028°45'  
2014-Sep-05 01:32N 38°51' E 025°16'8 8.5
2014-Sep-05 00:33N 38°44' E 025°12'69 8.5
2014-Sep-04 16:29N 37°43' E 024°30'10 9.0
2014-Sep-04 15:25N 37°35' E 024°24'9 8.4
2014-Sep-04 14:24N 37°27' E 024°19'8 8.4
2014-Sep-04 13:26N 37°22' E 024°12'  
Track history (hours):
 
Tides and Currents Weather Stations Pressure Air Temp Water Temp Dewpoint Dewpoint Depression Visibility Wind Speed Wind Dir Waves Ship Positions

Gokbel

Last reported at 2014-Sep-13 00:32 UTC. Time now 2014-Sep-17 07:35 UTC.
Position N 40°58' E 028°59'.

Length 87 m; draft 3.3 m.

MMSI: 271042598.

Date/timePositionNaut miles runAvg speedWind from/ knotsBaromVisibWave heightAir tempDewpointWater temp
2014-Sep-13 00:32N 40°58' E 028°59'4 3.6
2014-Sep-12 23:33N 40°58' E 028°54'0 0.0
2014-Sep-12 22:33N 40°58' E 028°54'0 0.0
2014-Sep-12 20:33N 40°58' E 028°54'0 0.0
2014-Sep-12 19:33N 40°58' E 028°54'0 0.0
2014-Sep-12 18:21N 40°58' E 028°54'0 0.0
2014-Sep-12 17:21N 40°58' E 028°54'0 0.0
2014-Sep-12 16:21N 40°58' E 028°54'0 0.0
2014-Sep-12 15:33N 40°58' E 028°54'0 0.0
2014-Sep-12 13:27N 40°58' E 028°54'0 0.0
2014-Sep-12 05:09N 40°58' E 028°54'0 0.0
2014-Sep-12 04:15N 40°58' E 028°54'0 0.0
2014-Sep-12 03:21N 40°58' E 028°54'0 0.0
2014-Sep-12 02:33N 40°58' E 028°54'0 0.0
2014-Sep-12 01:27N 40°58' E 028°54'0 0.0
2014-Sep-12 00:33N 40°58' E 028°54'3 3.2
2014-Sep-11 23:32N 40°55' E 028°57'10 9.1
2014-Sep-11 22:26N 40°50' E 028°45'  
2014-Sep-05 01:32N 38°51' E 025°16'8 8.5
2014-Sep-05 00:33N 38°44' E 025°12'69 8.5
2014-Sep-04 16:29N 37°43' E 024°30'10 9.0
2014-Sep-04 15:25N 37°35' E 024°24'9 8.4
2014-Sep-04 14:24N 37°27' E 024°19'8 8.4
2014-Sep-04 13:26N 37°22' E 024°12'  

Dump ship's entire track history